createdAt,value
2023-02-25T00:14:15.225Z,-0.13
2023-02-25T00:29:17.419Z,0.18
2023-02-25T00:44:19.579Z,-0.67
2023-02-25T00:59:21.794Z,-0.27
2023-02-25T01:14:24.059Z,-0.76
2023-02-25T01:29:26.309Z,-0.83
2023-02-25T01:44:28.826Z,-1.31
2023-02-25T01:59:31.045Z,-0.86
2023-02-25T02:14:33.404Z,-0.9
2023-02-25T02:29:35.664Z,-1.44
2023-02-25T02:44:37.938Z,-1.35
2023-02-25T02:59:40.260Z,-1.51
2023-02-25T03:14:42.606Z,-1.64
2023-02-25T03:29:45.001Z,-2.03
2023-02-25T03:44:47.277Z,-2.18
2023-02-25T03:59:49.535Z,-2.5
2023-02-25T04:14:51.751Z,-2.87
2023-02-25T04:29:54.215Z,-2.76
2023-02-25T04:44:56.465Z,-3.13
2023-02-25T04:59:58.805Z,-3.3
2023-02-25T05:15:01.251Z,-2.84
2023-02-25T05:30:03.448Z,-3.08
2023-02-25T05:45:05.709Z,-3.38
2023-02-25T06:00:07.960Z,-3.42
2023-02-25T06:15:10.189Z,-3.74
2023-02-25T06:30:12.438Z,-3.24
2023-02-25T06:45:14.708Z,-3.2
2023-02-25T07:00:16.915Z,-3.93
2023-02-25T07:15:19.126Z,-3.09
2023-02-25T07:30:21.331Z,-3
2023-02-25T07:45:23.583Z,-3.12
2023-02-25T08:00:25.984Z,-3.22
2023-02-25T08:15:28.361Z,-3.11
2023-02-25T08:30:30.647Z,-3.21
2023-02-25T08:45:32.839Z,-3.39
2023-02-25T09:00:35.076Z,-3.48
2023-02-25T09:15:37.424Z,-3.5
2023-02-25T09:30:39.765Z,-3.38
2023-02-25T09:45:42.024Z,-3.47
2023-02-25T10:00:44.462Z,-3.59
2023-02-25T10:15:52.477Z,-3.2
2023-02-25T10:30:55.582Z,-3.38
2023-02-25T10:45:57.839Z,-3.12
2023-02-25T11:01:00.155Z,-3.31
2023-02-25T11:16:02.392Z,-3.49
2023-02-25T11:31:04.705Z,-3.35
2023-02-25T11:46:06.992Z,-3.15
2023-02-25T12:01:10.546Z,-3.33
2023-02-25T12:16:13.967Z,-3.24
2023-02-25T12:31:16.259Z,-3.41
2023-02-25T12:46:18.557Z,-3.77
2023-02-25T13:01:21.043Z,-4.13
2023-02-25T13:16:23.624Z,-3.8
2023-02-25T13:31:26.404Z,-3.62
2023-02-25T13:46:28.834Z,-3.75
2023-02-25T14:01:31.181Z,-3.65
2023-02-25T14:16:33.458Z,-3.97
2023-02-25T14:31:35.795Z,-4.18
2023-02-25T14:46:38.044Z,-4.15
2023-02-25T15:01:40.309Z,-4.13
2023-02-25T15:16:42.559Z,-4.07
2023-02-25T15:31:44.859Z,-4.35
2023-02-25T15:46:47.160Z,-4.6
2023-02-25T16:01:49.505Z,-4.04
2023-02-25T16:16:51.757Z,-3.36
2023-02-25T16:31:54.038Z,-2.97
2023-02-25T16:46:56.342Z,-3.58
2023-02-25T17:01:58.671Z,-3.19
2023-02-25T17:17:00.934Z,-2.92
2023-02-25T17:32:03.393Z,-2.86
2023-02-25T17:47:05.666Z,-2.67
2023-02-25T18:02:07.881Z,-2.49
2023-02-25T18:17:10.068Z,-2.51
2023-02-25T18:32:12.966Z,-2.1
2023-02-25T18:47:15.303Z,-1.83
2023-02-25T19:02:17.571Z,-1.84
2023-02-25T19:17:19.867Z,-1.43
2023-02-25T19:32:22.231Z,-1.1
2023-02-25T19:47:24.491Z,-1.02
2023-02-25T20:02:26.884Z,-0.74
2023-02-25T20:17:29.280Z,-0.43
2023-02-25T20:32:31.857Z,-0.35
2023-02-25T20:47:34.077Z,-0.04
2023-02-25T21:02:36.325Z,-0.07
2023-02-25T21:17:38.522Z,-0.18
2023-02-25T21:32:40.719Z,0.29
2023-02-25T21:47:43.324Z,0.32
2023-02-25T22:02:45.544Z,-0.24
2023-02-25T22:17:47.767Z,-0.51
2023-02-25T22:32:49.968Z,-0.15
2023-02-25T22:47:52.200Z,-0.94
2023-02-25T23:02:54.460Z,-1.3
2023-02-25T23:17:56.768Z,-0.47
2023-02-25T23:32:59.034Z,-0.45
2023-02-25T23:48:01.250Z,-0.66
